createdAt,value
2017-10-25T00:01:57.928Z,32.90
2017-10-25T00:06:59.885Z,34.37
2017-10-25T00:12:01.801Z,32.90
2017-10-25T00:17:03.823Z,33.00
2017-10-25T00:22:05.748Z,33.00
2017-10-25T00:27:07.695Z,30.73
2017-10-25T00:32:09.651Z,31.63
2017-10-25T00:37:11.649Z,29.87
2017-10-25T00:42:13.554Z,27.07
2017-10-25T00:47:15.499Z,28.10
2017-10-25T00:52:17.482Z,26.73
2017-10-25T00:57:19.516Z,26.50
2017-10-25T01:02:21.495Z,24.63
2017-10-25T01:07:25.088Z,23.53
2017-10-25T01:12:27.927Z,23.07
2017-10-25T01:17:29.973Z,21.90
2017-10-25T01:22:31.955Z,22.67
2017-10-25T01:27:33.956Z,20.67
2017-10-25T01:32:35.919Z,20.30
2017-10-25T01:37:37.924Z,19.30
2017-10-25T01:42:39.942Z,18.87
2017-10-25T01:47:41.964Z,18.47
2017-10-25T01:52:43.980Z,18.33
2017-10-25T01:57:45.967Z,16.53
2017-10-25T02:02:47.986Z,15.40
2017-10-25T02:07:49.901Z,15.30
2017-10-25T02:12:51.859Z,13.30
2017-10-25T02:17:53.789Z,13.90
2017-10-25T02:22:55.718Z,14.10
2017-10-25T02:27:57.640Z,14.80
2017-10-25T02:33:00.310Z,14.37
2017-10-25T02:38:02.233Z,13.70
2017-10-25T02:43:04.151Z,13.60
2017-10-25T02:48:06.169Z,14.70
2017-10-25T02:53:08.839Z,14.63
2017-10-25T02:58:10.779Z,14.90
2017-10-25T03:03:12.717Z,15.73
2017-10-25T03:08:14.645Z,14.63
2017-10-25T03:13:16.612Z,15.23
2017-10-25T03:18:19.319Z,15.20
2017-10-25T03:23:22.059Z,14.57
2017-10-25T03:28:24.729Z,14.10
2017-10-25T03:33:26.636Z,15.10
2017-10-25T03:38:28.598Z,13.93
2017-10-25T03:43:30.543Z,13.10
2017-10-25T03:48:32.449Z,12.70
2017-10-25T03:53:34.396Z,11.77
2017-10-25T03:58:37.063Z,10.93
2017-10-25T04:03:38.996Z,11.60
2017-10-25T04:08:41.013Z,11.07
2017-10-25T04:13:43.702Z,10.67
2017-10-25T04:18:46.446Z,11.00
2017-10-25T04:23:49.210Z,8.60
2017-10-25T04:28:51.915Z,8.10
2017-10-25T04:33:55.350Z,7.77
2017-10-25T04:38:58.771Z,6.37
2017-10-25T04:44:01.287Z,6.73
2017-10-25T04:49:03.761Z,6.13
2017-10-25T04:54:05.923Z,4.93
2017-10-25T04:59:08.975Z,6.10
2017-10-25T05:04:11.025Z,5.87
2017-10-25T05:09:13.103Z,7.50
2017-10-25T05:14:15.036Z,8.10
2017-10-25T05:19:17.146Z,7.80
2017-10-25T05:24:19.163Z,10.47
2017-10-25T05:29:21.204Z,11.60
2017-10-25T05:34:23.921Z,13.27
2017-10-25T05:39:27.144Z,15.47
2017-10-25T05:44:29.928Z,16.17
2017-10-25T05:49:32.041Z,17.63
2017-10-25T05:54:34.137Z,18.40
2017-10-25T05:59:36.147Z,18.90
2017-10-25T06:04:38.112Z,22.03
2017-10-25T06:09:40.034Z,21.80
2017-10-25T06:14:41.991Z,23.50
2017-10-25T06:19:43.940Z,25.50
2017-10-25T06:24:45.859Z,24.43
2017-10-25T06:29:47.777Z,26.13
2017-10-25T06:34:49.738Z,26.97
2017-10-25T06:39:51.682Z,29.23
2017-10-25T06:44:53.693Z,28.43
2017-10-25T06:49:55.728Z,28.73
2017-10-25T06:54:58.372Z,29.10
2017-10-25T07:00:00.345Z,25.63
2017-10-25T07:05:02.315Z,25.67
2017-10-25T07:10:04.256Z,23.20
2017-10-25T07:15:06.165Z,23.57
2017-10-25T07:20:08.843Z,20.70
2017-10-25T07:25:10.767Z,19.00
2017-10-25T07:30:12.711Z,18.70
2017-10-25T07:35:14.647Z,17.10
2017-10-25T07:40:16.584Z,14.57
2017-10-25T07:45:18.526Z,12.90
2017-10-25T07:50:20.545Z,12.60
2017-10-25T07:55:22.467Z,13.83
2017-10-25T08:00:24.363Z,12.83
2017-10-25T08:05:27.123Z,11.07
2017-10-25T08:10:29.080Z,10.03
2017-10-25T08:15:31.073Z,9.10
2017-10-25T08:20:33.028Z,7.93
2017-10-25T08:25:34.948Z,7.67
2017-10-25T08:30:37.605Z,8.23
2017-10-25T08:35:39.510Z,7.83
2017-10-25T08:40:41.447Z,8.17
2017-10-25T08:45:43.549Z,6.60
2017-10-25T08:50:46.113Z,6.53
2017-10-25T08:55:48.116Z,6.00
2017-10-25T09:00:50.885Z,5.43
2017-10-25T09:05:52.846Z,6.50
2017-10-25T09:10:54.842Z,6.07
2017-10-25T09:15:57.741Z,6.60
2017-10-25T09:20:59.656Z,7.87
2017-10-25T09:26:01.612Z,7.43
2017-10-25T09:31:03.719Z,7.87
2017-10-25T09:36:06.311Z,7.60
2017-10-25T09:41:08.319Z,7.20
2017-10-25T09:46:11.080Z,7.20
2017-10-25T09:51:13.199Z,7.90
2017-10-25T09:56:15.581Z,7.17
2017-10-25T10:01:17.815Z,7.63
2017-10-25T10:06:19.752Z,7.33
2017-10-25T10:11:21.706Z,7.80
2017-10-25T10:16:23.698Z,7.63
2017-10-25T10:21:25.745Z,7.83
2017-10-25T10:26:27.687Z,7.10
2017-10-25T10:31:29.667Z,6.83
2017-10-25T10:36:32.391Z,6.17
2017-10-25T10:41:34.466Z,6.63
2017-10-25T10:46:36.459Z,6.60
2017-10-25T10:51:38.368Z,7.00
2017-10-25T10:56:40.744Z,7.00
2017-10-25T11:01:42.799Z,7.13
2017-10-25T11:06:44.758Z,7.23
2017-10-25T11:11:47.445Z,6.57
2017-10-25T11:16:49.563Z,6.43
2017-10-25T11:21:51.659Z,6.33
2017-10-25T11:26:53.807Z,6.47
2017-10-25T11:31:56.037Z,5.60
2017-10-25T11:36:58.311Z,6.23
2017-10-25T11:42:00.294Z,7.13
2017-10-25T11:47:02.321Z,6.80
2017-10-25T11:52:04.974Z,6.83
2017-10-25T11:57:06.923Z,6.70
2017-10-25T12:02:08.903Z,8.00
2017-10-25T12:07:10.849Z,8.20
2017-10-25T12:12:12.766Z,8.50
2017-10-25T12:17:15.441Z,9.67
2017-10-25T12:22:17.396Z,11.07
2017-10-25T12:27:20.059Z,11.40
2017-10-25T12:32:22.796Z,11.00
2017-10-25T12:37:24.686Z,11.90
2017-10-25T12:42:27.097Z,12.70
2017-10-25T12:47:29.058Z,11.47
2017-10-25T12:52:31.798Z,12.63
2017-10-25T12:57:35.339Z,11.37
2017-10-25T13:02:38.548Z,11.20
2017-10-25T13:07:40.548Z,10.40
2017-10-25T13:12:46.821Z,10.70
2017-10-25T13:17:51.733Z,12.33
2017-10-25T13:22:54.390Z,11.97
2017-10-25T13:27:57.149Z,10.57
2017-10-25T13:32:59.967Z,9.90
2017-10-25T13:38:02.509Z,11.07
2017-10-25T13:43:05.159Z,10.80
2017-10-25T13:48:07.239Z,11.20
2017-10-25T13:53:09.867Z,11.27
2017-10-25T13:58:11.933Z,11.73
2017-10-25T14:03:14.386Z,13.40
2017-10-25T14:08:16.393Z,15.10
2017-10-25T14:13:18.440Z,15.47
2017-10-25T14:18:20.377Z,16.00
2017-10-25T14:23:22.327Z,17.23
2017-10-25T14:28:43.449Z,15.47
2017-10-25T14:33:45.408Z,16.17
2017-10-25T14:38:47.719Z,16.30
2017-10-25T14:43:49.732Z,15.90
2017-10-25T14:48:51.775Z,16.90
2017-10-25T14:53:53.701Z,16.33
2017-10-25T14:58:56.345Z,15.93
2017-10-25T15:03:58.347Z,16.53
2017-10-25T15:09:00.299Z,17.00
2017-10-25T15:14:02.280Z,15.30
2017-10-25T15:19:04.311Z,15.47
2017-10-25T15:24:06.392Z,15.27
2017-10-25T15:29:08.376Z,15.80
2017-10-25T15:34:10.334Z,14.77
2017-10-25T15:39:12.275Z,15.03
2017-10-25T15:44:14.218Z,15.20
2017-10-25T15:49:16.212Z,16.00
2017-10-25T15:54:18.164Z,15.43
2017-10-25T15:59:21.938Z,15.83
2017-10-25T16:04:24.621Z,16.33
2017-10-25T16:09:26.708Z,16.17
2017-10-25T16:14:28.692Z,18.43
2017-10-25T16:19:30.704Z,17.20
2017-10-25T16:24:32.638Z,17.97
2017-10-25T16:29:34.576Z,18.10
2017-10-25T16:34:37.216Z,19.70
2017-10-25T16:39:39.171Z,18.60
2017-10-25T16:44:41.208Z,18.10
2017-10-25T16:49:43.219Z,16.67
2017-10-25T16:54:45.216Z,16.33
2017-10-25T16:59:47.125Z,17.90
2017-10-25T17:04:49.072Z,16.40
2017-10-25T17:09:51.034Z,18.43
2017-10-25T17:14:53.003Z,17.13
2017-10-25T17:19:54.975Z,16.97
2017-10-25T17:24:56.948Z,17.20
2017-10-25T17:29:58.924Z,17.03
2017-10-25T17:35:01.071Z,19.30
2017-10-25T17:40:03.772Z,18.70
2017-10-25T17:45:06.440Z,19.17
2017-10-25T17:50:12.929Z,20.10
2017-10-25T17:55:19.810Z,20.50
2017-10-25T18:00:24.535Z,22.67
2017-10-25T18:05:26.789Z,24.07
2017-10-25T18:10:33.105Z,23.23
2017-10-25T18:15:35.295Z,22.17
2017-10-25T18:20:38.039Z,24.33
2017-10-25T18:25:39.995Z,24.73
2017-10-25T18:30:41.948Z,25.90
2017-10-25T18:35:43.992Z,24.43
2017-10-25T18:40:45.952Z,25.30
2017-10-25T18:45:48.626Z,26.63
2017-10-25T18:50:50.602Z,26.27
2017-10-25T18:55:52.545Z,26.50
2017-10-25T19:00:54.506Z,26.17
2017-10-25T19:05:56.630Z,27.03
2017-10-25T19:10:58.571Z,30.37
2017-10-25T19:16:00.500Z,26.90
2017-10-25T19:21:04.636Z,30.93
2017-10-25T19:26:07.268Z,33.27
2017-10-25T19:31:09.909Z,32.70
2017-10-25T19:36:12.032Z,34.80
2017-10-25T19:41:14.062Z,43.90
2017-10-25T19:46:16.047Z,28.97
2017-10-25T19:51:17.992Z,29.83
2017-10-25T19:56:19.925Z,33.90
2017-10-25T20:01:21.987Z,30.87
2017-10-25T20:06:24.007Z,30.30
2017-10-25T20:11:26.141Z,29.63
2017-10-25T20:16:28.079Z,30.90
2017-10-25T20:21:30.601Z,33.60
2017-10-25T20:26:34.327Z,36.10
2017-10-25T20:31:36.419Z,34.70
2017-10-25T20:36:39.098Z,38.03
2017-10-25T20:41:41.035Z,37.10
2017-10-25T20:46:43.024Z,33.60
2017-10-25T20:51:44.980Z,33.30
2017-10-25T20:56:46.922Z,34.00
2017-10-25T21:01:48.888Z,34.13
2017-10-25T21:06:50.843Z,30.70
2017-10-25T21:11:52.750Z,33.43
2017-10-25T21:16:54.668Z,34.80
2017-10-25T21:21:57.324Z,33.70
2017-10-25T21:26:59.267Z,34.53
2017-10-25T21:32:01.202Z,34.87
2017-10-25T21:37:03.162Z,33.27
2017-10-25T21:42:05.080Z,32.93
2017-10-25T21:47:07.081Z,32.07
2017-10-25T21:52:09.024Z,31.00
2017-10-25T21:57:10.925Z,30.60
2017-10-25T22:02:12.878Z,26.77
2017-10-25T22:07:14.795Z,23.73
2017-10-25T22:12:16.808Z,22.67
2017-10-25T22:17:18.732Z,20.90
2017-10-25T22:22:21.380Z,19.10
2017-10-25T22:27:23.335Z,20.60
2017-10-25T22:32:25.245Z,18.87
2017-10-25T22:37:27.154Z,20.23
2017-10-25T22:42:29.811Z,19.57
2017-10-25T22:47:31.803Z,18.80
2017-10-25T22:52:33.757Z,16.30
2017-10-25T22:57:35.722Z,16.23
2017-10-25T23:02:37.665Z,16.37
2017-10-25T23:07:39.659Z,18.80
2017-10-25T23:12:41.573Z,20.20
2017-10-25T23:17:43.556Z,21.23
2017-10-25T23:22:45.491Z,26.00
2017-10-25T23:27:47.413Z,26.80
2017-10-25T23:32:50.131Z,30.57
2017-10-25T23:37:52.821Z,28.43
2017-10-25T23:42:54.744Z,27.63
2017-10-25T23:47:56.704Z,28.30
2017-10-25T23:52:58.670Z,31.77
2017-10-25T23:58:01.389Z,33.50
